createdAt,value
2022-08-09T00:01:10.483Z,17.63
2022-08-09T00:04:03.730Z,17.60
2022-08-09T00:06:27.740Z,17.56
2022-08-09T00:08:57.267Z,17.52
2022-08-09T00:11:27.662Z,17.49
2022-08-09T00:14:11.384Z,17.50
2022-08-09T00:16:44.280Z,17.60
2022-08-09T00:19:11.296Z,17.60
2022-08-09T00:21:55.502Z,17.60
2022-08-09T00:24:23.645Z,17.53
2022-08-09T00:26:51.107Z,17.49
2022-08-09T00:30:09.928Z,17.41
2022-08-09T00:32:05.762Z,17.37
2022-08-09T00:34:33.439Z,17.37
2022-08-09T00:37:00.758Z,17.34
2022-08-09T00:40:12.004Z,17.32
2022-08-09T00:44:13.222Z,17.28
2022-08-09T00:45:14.753Z,17.27
2022-08-09T00:47:42.433Z,17.20
2022-08-09T00:50:14.204Z,17.15
2022-08-09T00:52:41.878Z,17.13
2022-08-09T00:55:09.095Z,17.07
2022-08-09T00:57:43.551Z,17.06
2022-08-09T01:00:20.527Z,17.05
2022-08-09T01:02:53.067Z,17.08
2022-08-09T01:05:53.465Z,17.13
2022-08-09T01:08:49.722Z,17.15
2022-08-09T01:11:39.745Z,17.12
2022-08-09T01:14:15.535Z,17.12
2022-08-09T01:16:47.326Z,17.09
2022-08-09T01:19:43.108Z,17.02
2022-08-09T01:22:46.362Z,16.93
2022-08-09T01:25:41.747Z,16.83
2022-08-09T01:28:09.987Z,16.78
2022-08-09T01:30:52.433Z,16.75
2022-08-09T01:33:23.962Z,16.74
2022-08-09T01:35:57.896Z,16.78
2022-08-09T01:38:30.070Z,16.80
2022-08-09T01:41:03.073Z,16.81
2022-08-09T01:43:51.218Z,16.76
2022-08-09T01:46:25.305Z,16.66
2022-08-09T01:48:57.210Z,16.61
2022-08-09T01:51:28.126Z,16.57
2022-08-09T01:54:01.327Z,16.53
2022-08-09T01:56:30.819Z,16.50
2022-08-09T01:59:01.935Z,16.48
2022-08-09T02:01:58.047Z,16.45
2022-08-09T02:04:20.204Z,16.46
2022-08-09T02:07:08.349Z,16.43
2022-08-09T02:09:59.190Z,16.34
2022-08-09T02:12:28.811Z,16.33
2022-08-09T02:14:59.612Z,16.28
2022-08-09T02:18:00.944Z,16.24
2022-08-09T02:20:26.448Z,16.22
2022-08-09T02:23:11.644Z,16.22
2022-08-09T02:25:42.680Z,16.21
2022-08-09T02:28:37.679Z,16.17
2022-08-09T02:31:08.762Z,16.16
2022-08-09T02:34:06.710Z,16.12
2022-08-09T02:36:33.978Z,16.09
2022-08-09T02:39:07.384Z,16.07
2022-08-09T02:41:53.665Z,16.06
2022-08-09T02:44:30.057Z,16.02
2022-08-09T02:46:58.571Z,16.01
2022-08-09T02:49:38.720Z,16.01
2022-08-09T02:52:12.879Z,16.01
2022-08-09T02:54:54.318Z,15.99
2022-08-09T02:57:25.584Z,15.95
2022-08-09T03:00:21.357Z,15.94
2022-08-09T03:02:59.810Z,15.90
2022-08-09T03:05:28.504Z,15.90
2022-08-09T03:07:56.193Z,15.86
2022-08-09T03:10:25.489Z,15.85
2022-08-09T03:12:54.747Z,15.83
2022-08-09T03:15:23.494Z,15.82
2022-08-09T03:17:54.022Z,15.78
2022-08-09T03:20:29.691Z,15.75
2022-08-09T03:23:10.531Z,15.72
2022-08-09T03:25:56.904Z,15.67
2022-08-09T03:28:30.506Z,15.62
2022-08-09T03:30:58.864Z,15.62
2022-08-09T03:33:54.964Z,15.61
2022-08-09T03:36:16.734Z,15.59
2022-08-09T03:38:44.558Z,15.55
2022-08-09T03:41:14.856Z,15.53
2022-08-09T03:43:43.314Z,15.52
2022-08-09T03:46:30.400Z,15.50
2022-08-09T03:49:04.276Z,15.48
2022-08-09T03:51:55.695Z,15.45
2022-08-09T03:54:30.947Z,15.42
2022-08-09T03:57:00.955Z,15.45
2022-08-09T03:59:43.086Z,15.43
2022-08-09T04:02:25.396Z,15.36
2022-08-09T04:04:55.513Z,15.32
2022-08-09T04:07:22.555Z,15.28
2022-08-09T04:10:09.340Z,15.23
2022-08-09T04:12:51.777Z,15.21
2022-08-09T04:15:38.785Z,15.19
2022-08-09T04:18:17.883Z,15.15
2022-08-09T04:20:46.291Z,15.12
2022-08-09T04:23:17.399Z,15.07
2022-08-09T04:25:51.641Z,15.04
2022-08-09T04:28:34.053Z,15.03
2022-08-09T04:31:05.854Z,15.01
2022-08-09T04:33:52.406Z,14.96
2022-08-09T04:36:28.294Z,14.93
2022-08-09T04:38:57.024Z,14.90
2022-08-09T04:41:24.518Z,14.91
2022-08-09T04:44:06.557Z,14.90
2022-08-09T04:46:38.036Z,14.88
2022-08-09T04:49:22.302Z,14.89
2022-08-09T04:52:07.576Z,14.92
2022-08-09T04:54:36.464Z,14.95
2022-08-09T04:57:03.768Z,14.96
2022-08-09T04:59:33.745Z,14.98
2022-08-09T05:02:02.996Z,15.00
2022-08-09T05:04:31.014Z,15.04
2022-08-09T05:06:58.469Z,15.04
2022-08-09T05:09:25.428Z,15.05
2022-08-09T05:12:09.680Z,15.05
2022-08-09T05:14:37.784Z,15.09
2022-08-09T05:18:36.690Z,15.12
2022-08-09T05:19:58.066Z,15.17
2022-08-09T05:22:33.464Z,15.24
2022-08-09T05:25:12.112Z,15.30
2022-08-09T05:27:46.680Z,15.35
2022-08-09T05:30:16.017Z,15.43
2022-08-09T05:32:45.305Z,15.52
2022-08-09T05:35:17.865Z,15.62
2022-08-09T05:37:48.000Z,15.74
2022-08-09T05:40:17.131Z,15.89
2022-08-09T05:42:45.092Z,16.07
2022-08-09T05:45:14.251Z,16.24
2022-08-09T05:47:50.837Z,16.42
2022-08-09T05:50:32.270Z,16.62
2022-08-09T05:53:05.353Z,16.84
2022-08-09T05:55:38.258Z,17.04
2022-08-09T05:58:07.212Z,17.18
2022-08-09T06:00:34.050Z,17.40
2022-08-09T06:03:02.749Z,17.51
2022-08-09T06:05:57.713Z,17.69
2022-08-09T06:08:24.738Z,17.87
2022-08-09T06:10:53.847Z,18.07
2022-08-09T06:13:21.009Z,18.19
2022-08-09T06:15:51.389Z,18.39
2022-08-09T06:18:18.628Z,18.41
2022-08-09T06:20:54.234Z,18.51
2022-08-09T06:23:24.403Z,18.63
2022-08-09T06:26:10.962Z,18.79
2022-08-09T06:28:37.522Z,18.77
2022-08-09T06:31:04.251Z,18.84
2022-08-09T06:33:41.454Z,18.97
2022-08-09T06:36:13.620Z,19.08
2022-08-09T06:38:47.251Z,19.19
2022-08-09T06:41:18.757Z,19.29
2022-08-09T06:43:47.127Z,19.35
2022-08-09T06:46:40.147Z,19.42
2022-08-09T06:49:01.120Z,19.41
2022-08-09T06:51:28.525Z,19.38
2022-08-09T06:53:55.736Z,19.45
2022-08-09T06:56:30.894Z,19.54
2022-08-09T07:00:55.799Z,19.56
2022-08-09T07:01:54.298Z,19.49
2022-08-09T07:04:24.972Z,19.56
2022-08-09T07:07:00.650Z,19.60
2022-08-09T07:09:55.092Z,19.57
2022-08-09T07:12:18.065Z,19.61
2022-08-09T07:14:50.752Z,19.69
2022-08-09T07:17:17.707Z,19.74
2022-08-09T07:19:44.426Z,19.73
2022-08-09T07:22:14.869Z,19.76
2022-08-09T07:24:44.409Z,19.80
2022-08-09T07:27:33.044Z,19.79
2022-08-09T07:30:02.714Z,19.73
2022-08-09T07:32:33.528Z,19.67
2022-08-09T07:35:07.997Z,19.58
2022-08-09T07:37:42.966Z,19.55
2022-08-09T07:40:13.373Z,19.49
2022-08-09T07:42:59.841Z,19.45
2022-08-09T07:45:39.787Z,19.49
2022-08-09T07:48:28.651Z,19.56
2022-08-09T07:51:09.528Z,19.53
2022-08-09T07:54:05.430Z,19.53
2022-08-09T07:56:33.899Z,19.58
2022-08-09T07:59:01.853Z,19.53
2022-08-09T08:01:33.010Z,19.56
2022-08-09T08:04:02.468Z,19.62
2022-08-09T08:06:31.787Z,19.69
2022-08-09T08:09:04.522Z,19.77
2022-08-09T08:12:27.247Z,19.83
2022-08-09T08:14:18.684Z,19.90
2022-08-09T08:16:51.149Z,19.99
2022-08-09T08:19:31.860Z,20.04
2022-08-09T08:21:58.607Z,20.03
2022-08-09T08:24:25.308Z,20.08
2022-08-09T08:27:02.010Z,20.18
2022-08-09T08:29:28.719Z,20.18
2022-08-09T08:32:06.588Z,20.26
2022-08-09T08:34:34.708Z,20.32
2022-08-09T08:37:03.006Z,20.38
2022-08-09T08:39:39.820Z,20.46
2022-08-09T08:42:11.195Z,20.54
2022-08-09T08:44:38.021Z,20.56
2022-08-09T08:47:12.806Z,20.64
2022-08-09T08:49:47.940Z,20.71
2022-08-09T08:55:15.387Z,20.86
2022-08-09T08:57:57.442Z,20.87
2022-08-09T09:00:27.526Z,20.92
2022-08-09T09:03:08.212Z,20.99
2022-08-09T09:05:59.695Z,21.02
2022-08-09T09:08:29.709Z,21.07
2022-08-09T09:10:58.368Z,21.13
2022-08-09T09:13:24.910Z,21.20
2022-08-09T09:16:09.456Z,21.27
2022-08-09T09:18:36.324Z,21.30
2022-08-09T09:21:06.336Z,21.38
2022-08-09T09:23:49.720Z,21.50
2022-08-09T09:26:25.960Z,21.53
2022-08-09T09:29:04.525Z,21.55
2022-08-09T09:32:05.824Z,21.62
2022-08-09T09:34:25.513Z,21.74
2022-08-09T09:36:57.312Z,21.77
2022-08-09T09:39:42.774Z,21.80
2022-08-09T09:42:26.253Z,21.87
2022-08-09T09:45:08.315Z,21.94
2022-08-09T09:47:47.786Z,22.01
2022-08-09T09:50:39.614Z,22.09
2022-08-09T09:53:21.025Z,22.17
2022-08-09T09:55:57.739Z,22.21
2022-08-09T09:58:49.078Z,22.28
2022-08-09T10:01:31.085Z,22.33
2022-08-09T10:04:15.801Z,22.37
2022-08-09T10:06:46.961Z,22.41
2022-08-09T10:09:23.272Z,22.49
2022-08-09T10:12:14.733Z,22.55
2022-08-09T10:14:49.362Z,22.58
2022-08-09T10:17:50.488Z,22.67
2022-08-09T10:20:27.723Z,22.76
2022-08-09T10:23:17.167Z,22.83
2022-08-09T10:26:06.998Z,22.87
2022-08-09T10:28:33.914Z,22.99
2022-08-09T10:34:09.992Z,23.07
2022-08-09T10:36:35.982Z,23.14
2022-08-09T10:39:13.897Z,23.22
2022-08-09T10:41:43.018Z,23.28
2022-08-09T10:44:10.245Z,23.31
2022-08-09T10:47:20.472Z,23.38
2022-08-09T10:50:15.134Z,23.42
2022-08-09T10:53:23.051Z,23.44
2022-08-09T10:55:58.252Z,23.51
2022-08-09T10:58:37.390Z,23.55
2022-08-09T11:03:02.714Z,23.61
2022-08-09T11:04:09.337Z,23.61
2022-08-09T11:06:59.985Z,23.68
2022-08-09T11:09:41.362Z,23.79
2022-08-09T11:12:14.095Z,23.81
2022-08-09T11:14:57.353Z,23.80
2022-08-09T11:17:26.641Z,23.83
2022-08-09T11:20:18.023Z,23.92
2022-08-09T11:22:55.440Z,24.06
2022-08-09T11:25:44.498Z,24.11
2022-08-09T11:28:34.318Z,24.18
2022-08-09T11:31:36.449Z,24.18
2022-08-09T11:34:07.728Z,24.26
2022-08-09T11:36:42.122Z,24.31
2022-08-09T11:39:08.784Z,24.32
2022-08-09T11:41:40.332Z,24.35
2022-08-09T11:44:21.695Z,24.37
2022-08-09T11:47:00.372Z,24.42
2022-08-09T11:50:53.961Z,24.48
2022-08-09T11:54:00.379Z,24.51
2022-08-09T11:55:52.215Z,24.52
2022-08-09T11:58:30.366Z,24.61
2022-08-09T12:01:08.628Z,24.59
2022-08-09T12:03:56.181Z,24.66
2022-08-09T12:06:26.733Z,24.74
2022-08-09T12:09:01.492Z,24.69
2022-08-09T12:11:29.363Z,24.73
2022-08-09T12:14:23.524Z,24.79
2022-08-09T12:16:56.268Z,24.88
2022-08-09T12:19:31.100Z,24.90
2022-08-09T12:22:03.599Z,24.95
2022-08-09T12:24:31.666Z,24.93
2022-08-09T12:29:13.165Z,24.98
2022-08-09T12:30:00.120Z,25.00
2022-08-09T12:32:42.351Z,25.02
2022-08-09T12:35:13.298Z,25.04
2022-08-09T12:37:50.089Z,25.07
2022-08-09T12:40:19.260Z,25.11
2022-08-09T12:42:50.129Z,25.20
2022-08-09T12:45:33.643Z,25.24
2022-08-09T12:48:10.733Z,25.29
2022-08-09T12:50:47.232Z,25.34
2022-08-09T12:53:37.723Z,25.37
2022-08-09T12:56:13.964Z,25.38
2022-08-09T12:59:03.863Z,25.38
2022-08-09T13:01:30.926Z,25.40
2022-08-09T13:04:02.693Z,25.39
2022-08-09T13:06:34.325Z,25.47
2022-08-09T13:09:08.466Z,25.47
2022-08-09T13:11:42.335Z,25.50
2022-08-09T13:14:40.639Z,25.56
2022-08-09T13:17:21.837Z,25.70
2022-08-09T13:20:16.089Z,25.78
2022-08-09T13:23:06.021Z,25.85
2022-08-09T13:25:52.788Z,25.89
2022-08-09T13:28:34.117Z,25.89
2022-08-09T13:32:15.826Z,25.89
2022-08-09T13:33:54.810Z,25.89
2022-08-09T13:36:37.870Z,25.97
2022-08-09T13:42:47.951Z,26.07
2022-08-09T13:45:15.503Z,26.06
2022-08-09T13:47:49.617Z,26.11
2022-08-09T13:50:30.495Z,26.19
2022-08-09T13:52:58.689Z,26.19
2022-08-09T13:55:28.981Z,26.14
2022-08-09T13:57:58.483Z,26.20
2022-08-09T14:00:29.038Z,26.20
2022-08-09T14:03:16.679Z,26.19
2022-08-09T14:06:00.376Z,26.21
2022-08-09T14:08:31.941Z,26.15
2022-08-09T14:11:00.402Z,26.05
2022-08-09T14:14:22.486Z,26.09
2022-08-09T14:16:18.608Z,25.99
2022-08-09T14:18:50.067Z,25.87
2022-08-09T14:21:20.379Z,25.80
2022-08-09T14:23:55.641Z,25.68
2022-08-09T14:26:32.693Z,25.63
2022-08-09T14:29:07.893Z,25.59
2022-08-09T14:31:54.252Z,25.63
2022-08-09T14:34:31.609Z,25.61
2022-08-09T14:37:07.572Z,25.61
2022-08-09T14:39:47.373Z,25.66
2022-08-09T14:42:31.698Z,25.74
2022-08-09T14:46:40.249Z,25.78
2022-08-09T14:47:59.380Z,25.87
2022-08-09T14:50:34.809Z,25.95
2022-08-09T14:53:11.728Z,25.99
2022-08-09T14:55:49.843Z,26.02
2022-08-09T14:58:17.429Z,26.07
2022-08-09T15:00:48.251Z,26.11
2022-08-09T15:03:20.086Z,26.10
2022-08-09T15:05:52.645Z,26.01
2022-08-09T15:08:23.965Z,25.97
2022-08-09T15:11:00.392Z,25.93
2022-08-09T15:13:47.865Z,25.91
2022-08-09T15:16:15.284Z,25.87
2022-08-09T15:18:41.906Z,25.89
2022-08-09T15:21:55.040Z,25.98
2022-08-09T15:24:09.429Z,25.98
2022-08-09T15:26:45.492Z,25.97
2022-08-09T15:30:58.199Z,26.00
2022-08-09T15:32:00.415Z,26.02
2022-08-09T15:34:33.532Z,26.04
2022-08-09T15:37:04.330Z,26.02
2022-08-09T15:39:34.535Z,26.04
2022-08-09T15:42:02.074Z,26.05
2022-08-09T15:44:29.202Z,26.10
2022-08-09T15:46:59.460Z,26.21
2022-08-09T15:49:27.470Z,26.20
2022-08-09T15:52:03.389Z,26.15
2022-08-09T15:54:46.464Z,26.13
2022-08-09T15:57:35.391Z,26.16
2022-08-09T16:00:14.233Z,26.11
2022-08-09T16:02:43.176Z,26.08
2022-08-09T16:05:21.923Z,26.04
2022-08-09T16:07:50.477Z,26.00
2022-08-09T16:10:55.223Z,26.00
2022-08-09T16:13:20.783Z,26.01
2022-08-09T16:16:10.664Z,25.98
2022-08-09T16:18:44.918Z,26.01
2022-08-09T16:21:17.664Z,26.01
2022-08-09T16:23:54.790Z,26.02
2022-08-09T16:26:33.953Z,25.98
2022-08-09T16:29:12.593Z,26.01
2022-08-09T16:32:12.599Z,26.02
2022-08-09T16:34:29.451Z,25.91
2022-08-09T16:37:16.027Z,25.90
2022-08-09T16:39:54.563Z,25.90
2022-08-09T16:42:29.339Z,25.87
2022-08-09T16:44:56.186Z,25.93
2022-08-09T16:48:38.243Z,25.90
2022-08-09T16:50:29.368Z,25.89
2022-08-09T16:52:56.572Z,25.87
2022-08-09T16:55:23.832Z,25.81
2022-08-09T16:58:09.815Z,25.79
2022-08-09T17:00:42.661Z,25.72
2022-08-09T17:03:21.807Z,25.68
2022-08-09T17:06:08.356Z,25.61
2022-08-09T17:08:58.790Z,25.59
2022-08-09T17:11:40.987Z,25.61
2022-08-09T17:14:25.379Z,25.59
2022-08-09T17:16:59.654Z,25.58
2022-08-09T17:19:47.517Z,25.59
2022-08-09T17:22:16.657Z,25.58
2022-08-09T17:24:54.979Z,25.56
2022-08-09T17:27:22.400Z,25.52
2022-08-09T17:29:50.668Z,25.44
2022-08-09T17:32:20.287Z,25.41
2022-08-09T17:35:04.379Z,25.39
2022-08-09T17:38:11.770Z,25.40
2022-08-09T17:40:21.985Z,25.41
2022-08-09T17:42:59.608Z,25.35
2022-08-09T17:45:56.880Z,25.30
2022-08-09T17:48:17.240Z,25.27
2022-08-09T17:50:48.512Z,25.23
2022-08-09T17:53:22.809Z,25.19
2022-08-09T17:55:54.107Z,25.14
2022-08-09T17:58:26.972Z,25.15
2022-08-09T18:00:56.634Z,25.14
2022-08-09T18:03:25.438Z,25.10
2022-08-09T18:05:53.626Z,25.03
2022-08-09T18:08:22.229Z,25.00
2022-08-09T18:11:00.744Z,25.00
2022-08-09T18:13:43.000Z,24.97
2022-08-09T18:16:16.534Z,24.90
2022-08-09T18:18:49.087Z,24.87
2022-08-09T18:21:23.707Z,24.87
2022-08-09T18:24:12.021Z,24.86
2022-08-09T18:26:46.749Z,24.86
2022-08-09T18:30:41.262Z,24.85
2022-08-09T18:32:04.933Z,24.83
2022-08-09T18:34:35.480Z,24.79
2022-08-09T18:37:04.617Z,24.76
2022-08-09T18:39:39.637Z,24.71
2022-08-09T18:42:09.046Z,24.69
2022-08-09T18:44:36.216Z,24.61
2022-08-09T18:47:08.371Z,24.58
2022-08-09T18:49:46.451Z,24.58
2022-08-09T18:52:18.579Z,24.56
2022-08-09T18:54:53.388Z,24.54
2022-08-09T18:57:23.917Z,24.49
2022-08-09T19:00:07.864Z,24.46
2022-08-09T19:02:35.401Z,24.41
2022-08-09T19:05:20.575Z,24.36
2022-08-09T19:08:04.249Z,24.30
2022-08-09T19:10:39.240Z,24.26
2022-08-09T19:13:20.796Z,24.23
2022-08-09T19:15:51.546Z,24.17
2022-08-09T19:18:33.505Z,24.14
2022-08-09T19:21:09.117Z,24.11
2022-08-09T19:24:36.156Z,24.08
2022-08-09T19:26:29.465Z,24.04
2022-08-09T19:29:02.013Z,23.99
2022-08-09T19:31:45.814Z,23.95
2022-08-09T19:34:21.745Z,23.90
2022-08-09T19:36:52.318Z,23.83
2022-08-09T19:39:20.718Z,23.81
2022-08-09T19:42:06.886Z,23.77
2022-08-09T19:44:33.824Z,23.73
2022-08-09T19:47:01.698Z,23.70
2022-08-09T19:50:10.331Z,23.62
2022-08-09T19:52:15.535Z,23.52
2022-08-09T19:54:45.012Z,23.42
2022-08-09T19:57:11.639Z,23.34
2022-08-09T20:00:02.407Z,23.26
2022-08-09T20:04:12.610Z,23.15
2022-08-09T20:05:16.688Z,23.05
2022-08-09T20:08:00.230Z,22.97
2022-08-09T20:10:36.982Z,22.87
2022-08-09T20:13:09.426Z,22.75
2022-08-09T20:16:37.028Z,22.69
2022-08-09T20:18:27.969Z,22.62
2022-08-09T20:20:55.775Z,22.54
2022-08-09T20:23:23.072Z,22.47
2022-08-09T20:25:53.628Z,22.46
2022-08-09T20:28:34.497Z,22.37
2022-08-09T20:31:15.346Z,22.30
2022-08-09T20:33:44.003Z,22.23
2022-08-09T20:36:12.186Z,22.18
2022-08-09T20:39:24.547Z,22.20
2022-08-09T20:41:32.209Z,22.16
2022-08-09T20:44:09.844Z,22.17
2022-08-09T20:46:44.159Z,22.18
2022-08-09T20:49:18.074Z,22.21
2022-08-09T20:51:50.462Z,22.19
2022-08-09T20:54:18.108Z,22.17
2022-08-09T20:56:49.899Z,22.13
2022-08-09T20:59:49.988Z,22.09
2022-08-09T21:02:11.186Z,22.05
2022-08-09T21:05:57.854Z,21.99
2022-08-09T21:07:40.424Z,21.94
2022-08-09T21:10:08.211Z,21.92
2022-08-09T21:12:37.130Z,21.93
2022-08-09T21:15:04.741Z,21.87
2022-08-09T21:18:29.754Z,21.78
2022-08-09T21:20:25.772Z,21.74
2022-08-09T21:22:54.111Z,21.73
2022-08-09T21:25:43.954Z,21.70
2022-08-09T21:28:34.491Z,21.69
2022-08-09T21:31:13.531Z,21.66
2022-08-09T21:33:45.623Z,21.60
2022-08-09T21:36:18.304Z,21.58
2022-08-09T21:38:51.116Z,21.52
2022-08-09T21:41:25.597Z,21.43
2022-08-09T21:44:12.052Z,21.39
2022-08-09T21:46:42.305Z,21.34
2022-08-09T21:49:09.820Z,21.31
2022-08-09T21:51:43.570Z,21.26
2022-08-09T21:54:12.169Z,21.22
2022-08-09T21:56:43.427Z,21.20
2022-08-09T21:59:20.634Z,21.14
2022-08-09T22:02:01.246Z,21.10
2022-08-09T22:04:56.727Z,21.06
2022-08-09T22:07:23.471Z,21.03
2022-08-09T22:10:05.387Z,20.99
2022-08-09T22:12:32.446Z,20.95
2022-08-09T22:14:59.385Z,20.91
2022-08-09T22:17:28.096Z,20.88
2022-08-09T22:20:00.584Z,20.81
2022-08-09T22:22:29.372Z,20.75
2022-08-09T22:26:04.167Z,20.71
2022-08-09T22:27:42.665Z,20.67
2022-08-09T22:30:10.555Z,20.62
2022-08-09T22:32:37.342Z,20.58
2022-08-09T22:35:06.568Z,20.54
2022-08-09T22:37:35.625Z,20.48
2022-08-09T22:40:08.782Z,20.42
2022-08-09T22:42:35.439Z,20.41
2022-08-09T22:48:11.471Z,20.38
2022-08-09T22:48:14.556Z,20.35
2022-08-09T22:50:35.078Z,20.32
2022-08-09T22:53:03.378Z,20.24
2022-08-09T22:56:07.204Z,20.24
2022-08-09T22:58:32.121Z,20.17
2022-08-09T23:01:00.621Z,20.10
2022-08-09T23:03:31.319Z,20.00
2022-08-09T23:06:34.986Z,19.85
2022-08-09T23:09:03.082Z,19.74
2022-08-09T23:11:29.652Z,19.72
2022-08-09T23:13:56.363Z,19.65
2022-08-09T23:16:23.335Z,19.57
2022-08-09T23:18:50.089Z,19.47
2022-08-09T23:21:24.639Z,19.40
2022-08-09T23:24:06.256Z,19.30
2022-08-09T23:26:35.971Z,19.34
2022-08-09T23:29:05.352Z,19.34
2022-08-09T23:31:32.316Z,19.26
2022-08-09T23:33:58.881Z,19.18
2022-08-09T23:36:25.584Z,19.10
2022-08-09T23:38:54.399Z,19.07
2022-08-09T23:41:28.035Z,19.11
2022-08-09T23:43:57.912Z,19.15
2022-08-09T23:46:24.449Z,19.19
2022-08-09T23:48:50.969Z,19.21
2022-08-09T23:51:17.796Z,19.22
2022-08-09T23:53:44.427Z,19.20
2022-08-09T23:56:10.995Z,19.17
2022-08-09T23:58:37.562Z,19.15
